Time;durP1;ratioP1;P1;durP2;ratioP2;P2;SDS_P1;SDS_P2;PMS_P1;PMS_P2;Temp;Humidity;BMP_temperature;BMP_pressure;BME280_temperature;BME280_humidity;BME280_pressure;Samples;Min_cycle;Max_cycle;Signal;HPM_P1;HPM_P2
2022/12/14 00:03:09;;;;;;;10.48;5.72;;;-1.10;99.90;;;;;;20502575;28;20074;-39
2022/12/14 00:13:14;;;;;;;12.10;5.85;;;-1.00;99.90;;;;;;20464400;28;20286;-39
2022/12/14 00:23:15;;;;;;;11.88;5.20;;;-1.00;99.90;;;;;;20489844;28;20074;-39
2022/12/14 00:33:16;;;;;;;11.18;5.47;;;-1.10;99.90;;;;;;20493860;28;20597;-39
2022/12/14 00:43:17;;;;;;;9.70;4.60;;;-1.10;99.90;;;;;;20496871;28;21734;-39
2022/12/14 00:53:20;;;;;;;9.07;3.78;;;-1.10;99.90;;;;;;20489718;28;20352;-38
2022/12/14 01:03:21;;;;;;;9.25;4.57;;;-1.10;99.90;;;;;;20476984;28;20440;-39
2022/12/14 01:13:22;;;;;;;11.23;6.18;;;-1.20;99.90;;;;;;20519338;28;20126;-39
2022/12/14 01:23:23;;;;;;;10.18;4.63;;;-1.20;99.90;;;;;;20477192;28;20046;-39
2022/12/14 01:33:24;;;;;;;10.57;4.90;;;-1.40;99.90;;;;;;20502391;28;20510;-39
2022/12/14 01:43:47;;;;;;;16.08;7.15;;;-1.40;99.90;;;;;;20485207;28;20665;-39
2022/12/14 01:53:48;;;;;;;8.27;4.93;;;-1.40;99.90;;;;;;20477376;28;20681;-39
2022/12/14 02:03:51;;;;;;;10.20;5.82;;;-1.40;99.90;;;;;;20481121;28;21776;-39
2022/12/14 02:13:52;;;;;;;11.52;5.47;;;-1.50;99.90;;;;;;20473972;28;20097;-39
2022/12/14 02:24:18;;;;;;;10.77;4.90;;;-1.60;99.90;;;;;;20502102;28;20189;-39
2022/12/14 02:34:53;;;;;;;17.20;6.07;;;-1.60;99.90;;;;;;20500834;28;21940;-38
2022/12/14 02:45:30;;;;;;;12.40;4.30;;;-1.60;99.90;;;;;;20511267;28;20140;-39
2022/12/14 02:55:41;;;;;;;5.32;3.90;;;-1.70;99.90;;;;;;20508010;28;20944;-39
2022/12/14 03:05:42;;;;;;;11.45;4.55;;;-1.70;99.90;;;;;;20510126;28;20169;-39
2022/12/14 03:15:48;;;;;;;8.65;3.53;;;-1.90;99.90;;;;;;20474493;28;20105;-39
2022/12/14 03:26:12;;;;;;;7.88;4.10;;;-2.00;99.90;;;;;;20496096;28;20149;-39
2022/12/14 03:36:42;;;;;;;10.60;4.82;;;-2.10;99.90;;;;;;20468240;28;20285;-39
2022/12/14 03:47:16;;;;;;;9.32;3.97;;;-2.10;99.90;;;;;;20486986;28;20082;-38
2022/12/14 03:57:35;;;;;;;7.72;4.13;;;-2.00;99.90;;;;;;20490230;28;20869;-39
2022/12/14 04:08:05;;;;;;;10.00;4.88;;;-2.10;99.90;;;;;;20468435;28;20078;-38
2022/12/14 04:39:07;;;;;;;11.52;4.35;;;-2.20;99.90;;;;;;20483279;28;21676;-39
2022/12/14 04:49:18;;;;;;;9.38;5.50;;;-2.30;99.90;;;;;;20483042;28;20082;-38
2022/12/14 04:59:20;;;;;;;11.30;5.40;;;-2.50;99.90;;;;;;20497984;28;20077;-38
2022/12/14 05:09:32;;;;;;;10.20;4.55;;;-2.50;99.90;;;;;;20476170;28;20475;-39
2022/12/14 05:19:33;;;;;;;9.70;4.72;;;-2.50;99.90;;;;;;20499577;28;20078;-39
2022/12/14 05:29:34;;;;;;;10.25;4.88;;;-2.60;99.90;;;;;;20505381;28;20292;-38
2022/12/14 05:39:35;;;;;;;9.15;4.00;;;-2.70;99.90;;;;;;20512162;28;21502;-41
2022/12/14 05:49:36;;;;;;;8.77;5.05;;;-2.80;99.90;;;;;;20516959;28;20074;-41
2022/12/14 05:59:37;;;;;;;7.13;4.55;;;-3.00;99.90;;;;;;20514663;28;20169;-41
2022/12/14 06:09:38;;;;;;;10.70;4.55;;;-3.00;99.90;;;;;;20513300;28;20145;-43
2022/12/14 06:19:39;;;;;;;5.88;2.97;;;-3.10;99.90;;;;;;20519528;28;20057;-41
2022/12/14 06:29:40;;;;;;;8.18;3.92;;;-3.10;99.90;;;;;;20510326;28;20074;-41
2022/12/14 06:39:41;;;;;;;6.97;3.80;;;-3.10;99.90;;;;;;20506323;28;20074;-41
2022/12/14 06:49:42;;;;;;;10.60;4.80;;;-3.20;99.90;;;;;;20501116;28;20152;-40
2022/12/14 06:59:43;;;;;;;8.50;4.35;;;-3.40;99.90;;;;;;20509069;28;21919;-40
2022/12/14 07:09:44;;;;;;;6.40;3.28;;;-3.30;99.90;;;;;;20482519;28;20125;-41
2022/12/14 07:19:46;;;;;;;7.78;3.75;;;-3.50;99.90;;;;;;20482021;28;20034;-40
2022/12/14 07:29:46;;;;;;;14.65;7.80;;;-3.60;99.90;;;;;;20480570;28;20120;-40
2022/12/14 07:39:47;;;;;;;18.10;7.13;;;-3.60;99.90;;;;;;20482438;28;20189;-40
2022/12/14 07:49:48;;;;;;;13.85;6.95;;;-3.70;99.90;;;;;;20481569;28;20098;-41
2022/12/14 07:59:49;;;;;;;10.38;3.92;;;-3.70;99.90;;;;;;20479836;28;20911;-40
2022/12/14 08:09:51;;;;;;;6.25;4.07;;;-3.60;99.90;;;;;;20458958;28;20134;-41
2022/12/14 08:19:52;;;;;;;9.27;4.65;;;-3.70;99.90;;;;;;20473913;28;20042;-40
2022/12/14 08:29:53;;;;;;;6.82;4.35;;;-3.70;99.90;;;;;;20512463;28;20078;-40
2022/12/14 08:39:54;;;;;;;9.20;4.63;;;-3.60;99.90;;;;;;20482854;28;20458;-40
2022/12/14 08:49:55;;;;;;;10.68;5.10;;;-3.60;99.90;;;;;;20494620;28;20233;-40
2022/12/14 08:59:56;;;;;;;10.45;4.43;;;-3.40;99.90;;;;;;20483299;28;20062;-40
2022/12/14 09:09:57;;;;;;;12.55;6.05;;;-3.20;99.90;;;;;;20481649;28;20145;-40
2022/12/14 09:19:58;;;;;;;8.57;5.10;;;-2.90;99.90;;;;;;20484520;28;20178;-41
2022/12/14 09:29:59;;;;;;;9.48;5.20;;;-2.60;99.90;;;;;;20489106;28;20817;-40
2022/12/14 09:40:00;;;;;;;9.88;5.55;;;-2.30;99.90;;;;;;20481959;28;20863;-41
2022/12/14 09:50:11;;;;;;;7.38;4.05;;;-2.20;99.90;;;;;;20476123;28;20074;-40
2022/12/14 10:00:17;;;;;;;12.52;4.80;;;-2.00;99.90;;;;;;20516785;28;20577;-41
2022/12/14 10:10:22;;;;;;;14.45;5.72;;;-1.80;99.90;;;;;;20508337;28;20233;-41
2022/12/14 10:20:38;;;;;;;7.20;4.93;;;-1.70;99.90;;;;;;20502089;28;20111;-41
2022/12/14 10:30:41;;;;;;;10.20;4.93;;;-1.40;99.90;;;;;;20480374;28;20137;-41
2022/12/14 10:40:48;;;;;;;17.42;4.68;;;-1.00;99.90;;;;;;20479210;28;20613;-41
2022/12/14 10:51:03;;;;;;;8.60;5.32;;;-0.50;98.70;;;;;;20485840;28;20069;-41
2022/12/14 11:01:11;;;;;;;10.75;5.47;;;0.50;94.80;;;;;;20502625;28;20888;-41
2022/12/14 11:11:22;;;;;;;8.65;3.90;;;0.90;92.50;;;;;;20507723;28;20586;-41
2022/12/14 11:21:30;;;;;;;6.15;2.90;;;1.40;91.20;;;;;;20498210;28;20120;-41
2022/12/14 11:31:38;;;;;;;8.07;4.35;;;1.90;87.20;;;;;;20506654;28;20650;-41
2022/12/14 11:41:42;;;;;;;9.50;4.72;;;2.50;85.20;;;;;;20510384;28;20059;-42
2022/12/14 11:51:59;;;;;;;6.60;3.83;;;2.80;81.70;;;;;;20517354;28;20152;-42
2022/12/14 12:02:36;;;;;;;7.97;3.95;;;2.90;80.00;;;;;;20496096;28;20644;-41
2022/12/14 12:12:45;;;;;;;9.25;3.47;;;3.20;77.90;;;;;;20485347;28;20085;-42
2022/12/14 12:22:50;;;;;;;5.18;3.03;;;4.00;74.90;;;;;;20525730;28;20035;-42
2022/12/14 12:32:54;;;;;;;10.07;3.03;;;4.30;69.60;;;;;;20489688;28;20879;-41
2022/12/14 12:43:03;;;;;;;6.13;2.97;;;4.30;67.30;;;;;;20521319;28;20076;-42
2022/12/14 12:53:25;;;;;;;6.60;3.92;;;4.40;64.60;;;;;;20502713;28;21754;-42
2022/12/14 13:03:36;;;;;;;3.70;2.20;;;4.10;67.30;;;;;;20523443;28;20569;-41
2022/12/14 13:13:44;;;;;;;6.63;3.55;;;3.80;69.30;;;;;;20493274;28;21624;-42
2022/12/14 13:23:45;;;;;;;7.35;2.72;;;3.40;70.00;;;;;;20428604;28;20039;-41
2022/12/14 13:34:05;;;;;;;5.25;2.72;;;2.90;74.90;;;;;;20458299;28;20156;-41
2022/12/14 13:44:30;;;;;;;9.18;4.25;;;2.20;78.70;;;;;;20456803;28;21774;-42
2022/12/14 13:54:38;;;;;;;7.25;3.83;;;1.90;80.70;;;;;;20475402;28;20055;-41
2022/12/14 14:04:41;;;;;;;7.50;3.13;;;1.60;86.30;;;;;;20484135;28;20134;-41
2022/12/14 14:14:59;;;;;;;7.75;3.50;;;1.50;89.70;;;;;;20477920;28;20073;-41
2022/12/14 14:25:21;;;;;;;6.35;3.85;;;1.10;92.20;;;;;;20491488;28;21804;-41
2022/12/14 14:35:35;;;;;;;8.68;4.07;;;0.90;94.20;;;;;;20512660;28;20086;-41
2022/12/14 14:45:51;;;;;;;10.52;4.75;;;0.70;95.00;;;;;;20486297;28;20174;-41
2022/12/14 14:55:55;;;;;;;8.38;4.35;;;0.60;96.20;;;;;;20498403;28;20970;-41
2022/12/14 15:05:57;;;;;;;6.60;4.38;;;0.50;97.90;;;;;;20519482;28;20144;-41
2022/12/14 15:15:58;;;;;;;9.43;4.95;;;0.30;99.10;;;;;;20491737;28;20043;-41
2022/12/14 15:26:01;;;;;;;7.97;3.53;;;0.10;99.90;;;;;;20484769;28;20744;-41
2022/12/14 15:36:10;;;;;;;8.85;3.78;;;-0.10;99.90;;;;;;20455211;28;22494;-41
2022/12/14 15:46:25;;;;;;;8.40;4.45;;;-0.40;99.90;;;;;;20397193;28;20150;-41
2022/12/14 15:56:27;;;;;;;9.95;5.45;;;-0.60;99.90;;;;;;20382376;28;20126;-41
2022/12/14 16:06:30;;;;;;;8.43;4.30;;;-0.60;99.90;;;;;;20388664;28;20614;-41
2022/12/14 16:16:31;;;;;;;7.63;4.60;;;-0.90;99.90;;;;;;20371514;28;20049;-41
2022/12/14 16:26:36;;;;;;;8.32;5.00;;;-1.00;99.90;;;;;;20388885;28;20058;-41
2022/12/14 16:36:37;;;;;;;9.10;5.20;;;-1.10;99.90;;;;;;20442470;28;20091;-41
2022/12/14 16:46:39;;;;;;;12.27;5.10;;;-1.20;99.90;;;;;;20444331;28;20043;-42
2022/12/14 16:56:43;;;;;;;8.90;4.38;;;-1.30;99.90;;;;;;20432851;28;20350;-41
2022/12/14 17:06:47;;;;;;;12.15;6.13;;;-1.30;99.90;;;;;;20435303;28;20740;-42
2022/12/14 17:16:51;;;;;;;14.13;6.05;;;-1.50;99.90;;;;;;20443613;28;20043;-42
2022/12/14 17:26:52;;;;;;;9.52;4.28;;;-1.50;99.90;;;;;;20432958;28;20388;-42
2022/12/14 17:36:54;;;;;;;8.57;5.05;;;-1.70;99.90;;;;;;20457102;28;20437;-41
2022/12/14 17:46:55;;;;;;;13.63;7.97;;;-1.70;99.90;;;;;;20428775;28;20130;-42
2022/12/14 17:56:56;;;;;;;13.20;7.20;;;-1.70;99.90;;;;;;20447205;28;20603;-42
2022/12/14 18:06:57;;;;;;;16.00;8.45;;;-1.90;99.90;;;;;;20444835;28;20535;-42
2022/12/14 18:16:59;;;;;;;17.25;7.25;;;-1.90;99.90;;;;;;20417873;28;20075;-42
2022/12/14 18:27:00;;;;;;;14.70;8.13;;;-2.00;99.90;;;;;;20408255;28;21019;-41
2022/12/14 18:37:01;;;;;;;16.33;7.57;;;-2.00;99.90;;;;;;20418347;28;21432;-42
2022/12/14 18:47:02;;;;;;;13.35;7.70;;;-2.10;99.90;;;;;;20467088;28;20605;-42
2022/12/14 18:57:03;;;;;;;10.23;5.40;;;-2.10;99.90;;;;;;20461260;28;20483;-41
2022/12/14 19:07:04;;;;;;;17.17;6.70;;;-2.20;99.90;;;;;;20458375;28;20081;-42
2022/12/14 19:17:06;;;;;;;10.95;5.88;;;-2.30;99.90;;;;;;20385228;28;20050;-42
2022/12/14 19:27:07;;;;;;;15.25;6.80;;;-2.20;99.90;;;;;;20412634;28;20117;-41
2022/12/14 19:37:08;;;;;;;11.65;5.88;;;-2.20;99.90;;;;;;20436633;28;20051;-42
2022/12/14 19:47:09;;;;;;;9.77;5.40;;;-2.10;99.90;;;;;;20463570;28;20050;-42
2022/12/14 19:57:10;;;;;;;11.65;6.95;;;-2.30;99.90;;;;;;20482126;28;20039;-42
2022/12/14 20:07:13;;;;;;;8.05;4.50;;;-2.30;99.90;;;;;;20481786;28;20077;-42
2022/12/14 20:17:14;;;;;;;14.38;5.95;;;-2.30;99.90;;;;;;20474382;28;20045;-42
2022/12/14 20:27:16;;;;;;;12.70;5.95;;;-2.40;99.90;;;;;;20484565;28;20129;-42
2022/12/14 20:37:17;;;;;;;11.38;6.70;;;-2.40;99.90;;;;;;20480554;28;20554;-42
2022/12/14 20:47:18;;;;;;;12.43;5.38;;;-2.20;99.90;;;;;;20500474;28;20558;-42
2022/12/14 20:57:19;;;;;;;10.05;4.88;;;-2.00;99.90;;;;;;20494188;28;20093;-42
2022/12/14 21:07:20;;;;;;;17.83;6.07;;;-2.00;99.90;;;;;;20497692;28;20649;-42
2022/12/14 21:17:23;;;;;;;13.63;5.15;;;-2.20;99.90;;;;;;20489041;28;20461;-42
2022/12/14 21:27:27;;;;;;;8.30;5.50;;;-2.30;99.90;;;;;;20489804;28;20047;-42
2022/12/14 21:37:28;;;;;;;11.73;6.00;;;-2.20;99.90;;;;;;20519215;28;20593;-41
2022/12/14 21:47:29;;;;;;;10.63;5.78;;;-2.30;99.90;;;;;;20514851;28;20659;-41
2022/12/14 22:07:50;;;;;;;12.57;5.78;;;-2.20;99.90;;;;;;20518796;28;20601;-42
2022/12/14 22:17:51;;;;;;;9.57;4.97;;;-2.20;99.90;;;;;;20518801;28;20301;-41
2022/12/14 22:27:52;;;;;;;13.52;6.53;;;-2.20;99.90;;;;;;20522877;28;20042;-41
2022/12/14 22:37:54;;;;;;;10.80;6.55;;;-2.20;99.90;;;;;;20517739;28;20046;-42
2022/12/14 22:47:55;;;;;;;8.90;5.40;;;-2.40;99.90;;;;;;20516058;28;20557;-41
2022/12/14 22:57:56;;;;;;;11.02;5.43;;;-2.30;99.90;;;;;;20524549;28;20475;-42
2022/12/14 23:07:57;;;;;;;11.82;5.88;;;-2.40;99.90;;;;;;20531779;28;20666;-41
